Gearhart, Oregon
Current Conditions -  °F | °C
As of 6:55 PM on Saturday 25 Oct 2014 (Local Time) from KAST Reporting Station
Scattered Clouds Scattered Clouds  
Wind Chill: 56°   Ceiling: Unl
Heat Index: 56°   Visibility: 10mi
Dew Point: 46°   Wind: 21mph
Humidity: 69%   Direction: 260°W
Pressure: 29.62"   Gusts: 41mph
Location:  45.8905°N, 123.667°W
Report Text: KAST 260155Z AUTO 26018G36KT 10SM FEW034 SCT070 13/08 A2962 RMK AO2 PK WND 27036/0150 RAE32 PRESRR SLP030 P0007 T01330078
Loading
Personal Weather Stations






























Interactive Weather Map
Tropical Storm Tracking
New forecast layout! Learn more

10-Day Weather Forecast

Advertisements
Track Severe Weather on mobile